Time;durP1;ratioP1;P1;durP2;ratioP2;P2;SDS_P1;SDS_P2;PMS_P1;PMS_P2;Temp;Humidity;BMP_temperature;BMP_pressure;BME280_temperature;BME280_humidity;BME280_pressure;Samples;Min_cycle;Max_cycle;Signal;HPM_P1;HPM_P2
2021/01/03 00:00:25;;;;;;;34.35;16.08;;;;;;;2.78;97.19;101418.34;6234057;28;20568;-75
2021/01/03 00:03:27;;;;;;;38.30;16.50;;;;;;;2.73;96.86;101417.56;6232577;28;20052;-74
2021/01/03 00:06:28;;;;;;;38.28;16.20;;;;;;;2.70;96.62;101410.66;6235082;28;20045;-74
2021/01/03 00:09:29;;;;;;;37.90;16.83;;;;;;;2.66;96.10;101424.53;6233358;28;20045;-74
2021/01/03 00:12:30;;;;;;;32.97;15.55;;;;;;;2.66;96.69;101421.94;6231140;28;20049;-74
2021/01/03 00:15:30;;;;;;;39.00;16.27;;;;;;;2.67;96.20;101415.84;6232401;28;20056;-75
2021/01/03 00:18:32;;;;;;;31.38;15.57;;;;;;;2.68;95.76;101417.59;6234596;28;20054;-75
2021/01/03 00:21:33;;;;;;;38.97;16.00;;;;;;;2.60;95.86;101411.63;6233926;28;20049;-74
2021/01/03 00:24:34;;;;;;;34.33;15.00;;;;;;;2.52;95.91;101411.69;6232276;28;20490;-74
2021/01/03 00:27:35;;;;;;;39.40;17.20;;;;;;;2.48;96.17;101414.31;6231989;28;20057;-74
2021/01/03 00:30:36;;;;;;;31.75;16.02;;;;;;;2.43;95.83;101421.28;6231975;28;20049;-74
2021/01/03 00:33:37;;;;;;;40.20;16.73;;;;;;;2.40;96.53;101408.34;6234651;28;20049;-75
2021/01/03 00:36:38;;;;;;;34.42;15.80;;;;;;;2.37;96.64;101414.44;6232383;28;20052;-75
2021/01/03 00:39:39;;;;;;;37.15;16.05;;;;;;;2.33;96.50;101417.91;6234085;28;20042;-74
2021/01/03 00:42:43;;;;;;;40.92;17.83;;;;;;;2.34;96.99;101416.19;6233099;28;20049;-74
2021/01/03 00:45:44;;;;;;;41.47;17.48;;;;;;;2.28;97.42;101415.38;6232149;28;20046;-74
2021/01/03 00:48:46;;;;;;;40.65;17.13;;;;;;;2.35;97.20;101416.16;6232605;28;20054;-74
2021/01/03 00:51:47;;;;;;;36.22;15.88;;;;;;;2.32;97.02;101411.03;6231355;28;20049;-74
2021/01/03 00:54:47;;;;;;;42.55;18.35;;;;;;;2.35;97.56;101412.72;6234686;28;20079;-74
2021/01/03 00:57:48;;;;;;;40.70;17.30;;;;;;;2.33;97.78;101411.88;6234762;28;20083;-74
2021/01/03 01:00:49;;;;;;;40.95;19.05;;;;;;;2.35;97.76;101412.72;6231652;28;20046;-74
2021/01/03 01:03:51;;;;;;;42.72;17.90;;;;;;;2.32;98.03;101413.63;6248902;23;20132;-73
2021/01/03 01:06:52;;;;;;;45.13;18.27;;;;;;;2.29;98.31;101417.06;6220963;28;20410;-73
2021/01/03 01:09:52;;;;;;;41.60;17.13;;;;;;;2.28;97.66;101417.97;6221102;28;20054;-72
2021/01/03 01:12:57;;;;;;;42.70;18.38;;;;;;;2.28;97.87;101420.56;6239653;28;20422;-73
2021/01/03 01:15:58;;;;;;;48.47;17.83;;;;;;;2.27;97.74;101425.72;6245750;28;20087;-73
2021/01/03 01:19:00;;;;;;;42.38;17.95;;;;;;;2.31;98.78;101418.78;6246725;28;20057;-73
2021/01/03 01:22:01;;;;;;;44.90;17.40;;;;;;;2.35;98.75;101423.94;6250602;28;20057;-72
2021/01/03 01:25:03;;;;;;;41.53;17.83;;;;;;;2.33;98.82;101430.88;6250367;28;20137;-72
2021/01/03 01:28:04;;;;;;;37.17;16.77;;;;;;;2.32;98.29;101436.06;6249962;28;20057;-71
2021/01/03 01:31:05;;;;;;;47.58;19.75;;;;;;;2.36;98.27;101445.53;6249862;28;20100;-71
2021/01/03 01:34:07;;;;;;;43.75;17.85;;;;;;;2.38;98.18;101447.25;6250424;28;20099;-72
2021/01/03 01:37:07;;;;;;;37.30;17.40;;;;;;;2.35;97.97;101452.47;6249991;28;20045;-73
2021/01/03 01:40:11;;;;;;;40.08;17.33;;;;;;;2.36;98.24;101448.13;6249990;28;20056;-73
2021/01/03 01:43:15;;;;;;;48.30;18.67;;;;;;;2.41;98.04;101449.84;6249694;28;20045;-71
2021/01/03 01:46:23;;;;;;;42.53;17.05;;;;;;;2.39;98.17;101451.56;6249897;28;20103;-72
2021/01/03 01:49:25;;;;;;;35.55;15.25;;;;;;;2.39;98.48;101448.13;6249533;28;20053;-73
2021/01/03 01:52:31;;;;;;;42.10;16.60;;;;;;;2.40;98.37;101444.66;6250112;28;20053;-73
2021/01/03 01:55:38;;;;;;;42.50;16.92;;;;;;;2.46;96.87;101447.22;6249882;28;20103;-72
2021/01/03 01:58:48;;;;;;;37.55;16.00;;;;;;;2.42;96.90;101438.59;6249375;28;20054;-73
2021/01/03 02:02:00;;;;;;;43.67;18.35;;;;;;;2.42;97.33;101437.72;6249418;28;20469;-72
2021/01/03 02:05:10;;;;;;;36.45;16.13;;;;;;;2.42;97.63;101441.19;6249802;28;20065;-73
2021/01/03 02:08:20;;;;;;;38.63;16.98;;;;;;;2.42;97.34;101437.72;6249238;28;20055;-73
2021/01/03 02:11:26;;;;;;;35.15;15.82;;;;;;;2.45;97.44;101437.69;6248680;28;20469;-73
2021/01/03 02:14:26;;;;;;;39.55;16.85;;;;;;;2.42;97.40;101435.13;6249456;28;20053;-73
2021/01/03 02:17:27;;;;;;;34.10;14.68;;;;;;;2.43;97.96;101440.31;6249234;28;20049;-73
2021/01/03 02:20:35;;;;;;;36.90;15.68;;;;;;;2.42;97.66;101433.41;6249348;28;20057;-72
2021/01/03 02:23:48;;;;;;;37.78;15.43;;;;;;;2.44;97.93;101444.59;6249378;28;20046;-73
2021/01/03 02:26:55;;;;;;;37.33;16.40;;;;;;;2.45;97.91;101438.56;6248793;28;20060;-72
2021/01/03 02:29:57;;;;;;;32.78;15.40;;;;;;;2.43;97.36;101442.03;6248250;28;20104;-72
2021/01/03 02:33:07;;;;;;;35.67;15.40;;;;;;;2.43;97.27;101445.50;6248478;28;20057;-72
2021/01/03 02:36:11;;;;;;;;;;;;;;;2.44;97.63;101444.59;6249265;28;20049;-72
2021/01/03 02:39:20;;;;;;;35.03;13.95;;;;;;;2.42;97.58;101445.50;6248437;28;20420;-72
2021/01/03 02:42:25;;;;;;;35.10;15.07;;;;;;;2.48;96.60;101435.94;6248562;28;20053;-73
2021/01/03 02:45:28;;;;;;;29.05;13.27;;;;;;;2.42;96.78;101441.19;6248818;28;20120;-72
2021/01/03 02:48:29;;;;;;;34.83;14.68;;;;;;;2.45;97.15;101445.47;6248193;28;20053;-72
2021/01/03 02:51:35;;;;;;;35.22;14.43;;;;;;;2.40;96.36;101435.13;6248227;28;20076;-72
2021/01/03 02:54:35;;;;;;;31.58;13.50;;;;;;;2.42;96.52;101438.59;6248477;28;20050;-72
2021/01/03 02:57:38;;;;;;;33.22;14.82;;;;;;;2.35;96.81;101436.91;6248168;28;20056;-72
2021/01/03 03:00:39;;;;;;;30.90;13.65;;;;;;;2.38;96.26;101430.84;6247867;28;20053;-72
2021/01/03 03:03:40;;;;;;;28.42;13.38;;;;;;;2.40;95.73;101436.88;6248180;28;20199;-72
2021/01/03 03:06:40;;;;;;;34.17;13.65;;;;;;;2.48;94.67;101420.38;6247769;28;20049;-72
2021/01/03 03:09:41;;;;;;;28.48;12.40;;;;;;;2.51;93.08;101428.13;6247775;28;20127;-72
2021/01/03 03:12:47;;;;;;;26.90;13.68;;;;;;;2.43;92.99;101416.97;6247486;28;20056;-72
2021/01/03 03:15:48;;;;;;;28.85;13.40;;;;;;;2.41;93.41;101420.47;6248179;28;20041;-72
2021/01/03 03:18:49;;;;;;;27.92;12.82;;;;;;;2.32;93.95;101412.72;6247347;28;20148;-72
2021/01/03 03:21:50;;;;;;;26.00;12.27;;;;;;;2.32;94.68;101411.03;6247718;28;20049;-72
2021/01/03 03:24:50;;;;;;;32.42;15.25;;;;;;;2.35;94.97;101405.78;6247688;28;20056;-72
2021/01/03 03:27:52;;;;;;;29.23;13.60;;;;;;;2.35;94.90;101410.13;6247493;28;20050;-72
2021/01/03 03:30:53;;;;;;;28.45;13.20;;;;;;;2.41;93.89;101397.97;6247285;28;20053;-72
2021/01/03 03:33:54;;;;;;;30.55;14.10;;;;;;;2.33;94.04;101399.75;6247498;28;20403;-72
2021/01/03 03:36:56;;;;;;;27.13;12.32;;;;;;;2.29;94.47;101388.56;6247321;28;20049;-72
2021/01/03 03:39:56;;;;;;;26.30;12.50;;;;;;;2.34;92.77;101392.84;6246774;28;20045;-72
2021/01/03 03:42:58;;;;;;;26.90;12.50;;;;;;;2.31;92.78;101392.84;6247242;28;20049;-72
2021/01/03 03:45:59;;;;;;;25.65;12.40;;;;;;;2.33;93.21;101399.75;6246897;28;20049;-73
2021/01/03 03:49:00;;;;;;;23.23;10.63;;;;;;;2.33;91.92;101391.13;6247042;28;20050;-72
2021/01/03 03:52:03;;;;;;;21.50;9.88;;;;;;;2.37;91.68;101400.59;6247204;28;20087;-72
2021/01/03 03:55:04;;;;;;;24.58;9.88;;;;;;;2.37;91.30;101398.00;6246967;28;20103;-73
2021/01/03 03:58:13;;;;;;;18.10;8.68;;;;;;;2.47;87.96;101399.63;6246841;28;20045;-73
2021/01/03 04:01:13;;;;;;;22.95;9.60;;;;;;;2.42;88.03;101404.88;6246239;28;20046;-72
2021/01/03 04:04:15;;;;;;;18.73;9.13;;;;;;;2.38;88.58;101402.31;6246810;28;20049;-73
2021/01/03 04:07:16;;;;;;;18.23;8.88;;;;;;;2.42;88.93;101396.22;6246399;28;20041;-72
2021/01/03 04:10:18;;;;;;;17.67;8.25;;;;;;;2.45;87.27;101389.28;6246329;28;20049;-73
2021/01/03 04:13:20;;;;;;;17.25;7.95;;;;;;;2.48;85.88;101391.84;6246536;28;20053;-73
2021/01/03 04:16:21;;;;;;;17.00;7.75;;;;;;;2.40;87.16;101391.03;6246664;28;20111;-72
2021/01/03 04:19:23;;;;;;;14.68;6.82;;;;;;;2.37;86.75;101393.69;6245788;28;20049;-73
2021/01/03 04:22:23;;;;;;;15.10;7.05;;;;;;;2.33;87.34;101389.41;6246815;28;20056;-73
2021/01/03 04:25:24;;;;;;;15.45;7.28;;;;;;;2.56;85.79;101398.69;6246258;28;20050;-72
2021/01/03 04:28:27;;;;;;;16.17;7.50;;;;;;;2.39;86.53;101391.06;6244563;28;20099;-73
2021/01/03 04:31:28;;;;;;;16.85;6.90;;;;;;;2.35;86.73;101391.97;6237675;28;20057;-73
2021/01/03 04:34:29;;;;;;;12.27;6.13;;;;;;;2.41;86.50;101395.38;6238311;28;20056;-73
2021/01/03 04:37:30;;;;;;;11.30;5.97;;;;;;;2.41;85.06;101395.38;6246241;28;20049;-73
2021/01/03 04:40:32;;;;;;;13.50;6.80;;;;;;;2.40;85.52;101398.81;6245928;28;20049;-73
2021/01/03 04:43:33;;;;;;;13.32;6.18;;;;;;;2.44;83.43;101394.47;6246189;28;20457;-73
2021/01/03 04:46:38;;;;;;;10.95;5.85;;;;;;;2.48;83.49;101398.75;6245520;28;20049;-73
2021/01/03 04:49:42;;;;;;;11.50;5.95;;;;;;;2.51;82.24;101402.19;6238430;28;20046;-73
2021/01/03 04:53:02;;;;;;;11.38;5.85;;;;;;;2.37;84.49;101405.78;6245784;28;20437;-73
2021/01/03 04:56:13;;;;;;;11.48;5.75;;;;;;;2.55;82.72;101408.22;6250594;28;20056;-73
2021/01/03 04:59:24;;;;;;;10.23;5.32;;;;;;;2.41;84.77;101410.09;6250935;28;20073;-74
2021/01/03 05:02:59;;;;;;;14.63;6.72;;;;;;;2.37;83.91;101411.84;6251069;28;20052;-73
2021/01/03 05:06:05;;;;;;;14.18;6.32;;;;;;;2.43;83.44;101409.19;6250921;28;20045;-73
2021/01/03 05:09:07;;;;;;;17.25;6.53;;;;;;;2.62;82.49;101404.66;6250253;28;20057;-73
2021/01/03 05:12:17;;;;;;;14.27;6.47;;;;;;;2.46;83.69;101406.56;6251024;28;20494;-70
2021/01/03 05:15:24;;;;;;;16.42;7.78;;;;;;;2.47;83.91;101397.03;6250810;28;20073;-70
2021/01/03 05:18:25;;;;;;;16.70;8.07;;;;;;;2.39;84.73;101402.28;6250701;28;20056;-70
2021/01/03 05:21:45;;;;;;;20.38;7.63;;;;;;;2.37;84.68;101406.66;6250198;28;20046;-70
2021/01/03 05:24:46;;;;;;;19.10;7.68;;;;;;;2.46;84.06;101414.34;6250869;28;20049;-70
2021/01/03 05:28:03;;;;;;;17.38;8.73;;;;;;;2.45;83.71;101409.16;6250056;28;20099;-70
2021/01/03 05:31:14;;;;;;;18.85;8.10;;;;;;;2.43;84.83;101411.78;6250292;28;20118;-70
2021/01/03 05:34:14;;;;;;;22.35;8.38;;;;;;;2.52;83.02;101411.69;6250310;28;20053;-70
2021/01/03 05:37:18;;;;;;;17.52;8.27;;;;;;;2.49;83.96;101408.25;6250000;28;20548;-70
2021/01/03 05:40:27;;;;;;;17.52;7.72;;;;;;;2.47;84.42;101416.06;6249563;28;20052;-70
2021/01/03 05:43:28;;;;;;;21.08;8.40;;;;;;;2.41;84.34;101416.13;6249922;28;20422;-70
2021/01/03 05:46:36;;;;;;;15.38;7.57;;;;;;;2.41;85.08;101410.94;6249789;28;20049;-70
2021/01/03 05:49:37;;;;;;;15.75;7.70;;;;;;;2.40;85.04;101414.38;6249640;28;20053;-70
2021/01/03 05:52:47;;;;;;;16.00;7.70;;;;;;;2.49;84.01;101421.22;6249917;28;20136;-70
2021/01/03 05:55:52;;;;;;;;;;;;;;;2.49;83.81;101424.66;6250393;28;20052;-70
2021/01/03 05:58:54;;;;;;;17.92;7.53;;;;;;;2.46;84.22;101429.91;6249441;28;19921;-70
2021/01/03 06:02:06;;;;;;;15.32;7.32;;;;;;;2.46;85.52;101426.47;6249867;28;20045;-72
2021/01/03 06:05:13;;;;;;;17.83;7.63;;;;;;;2.52;84.08;101419.47;6249701;28;20095;-73
2021/01/03 06:08:18;;;;;;;15.40;7.47;;;;;;;2.47;84.83;101426.44;6249635;28;20049;-73
2021/01/03 06:11:20;;;;;;;16.60;7.72;;;;;;;2.52;84.15;101431.59;6248561;28;20050;-72
2021/01/03 06:14:23;;;;;;;17.48;7.55;;;;;;;2.55;84.62;101439.34;6249477;28;20128;-73
2021/01/03 06:17:33;;;;;;;16.23;6.68;;;;;;;2.53;84.24;101433.28;6249163;28;20103;-72
2021/01/03 06:20:33;;;;;;;13.45;6.60;;;;;;;2.56;84.65;101440.19;6249270;28;20049;-72
2021/01/03 06:23:40;;;;;;;15.07;6.90;;;;;;;2.65;83.95;101446.16;6249202;28;20099;-73
2021/01/03 06:26:46;;;;;;;15.00;7.15;;;;;;;2.56;83.60;101442.81;6248832;28;20049;-72
2021/01/03 06:29:50;;;;;;;13.25;6.68;;;;;;;2.54;83.91;101435.91;6248405;28;20046;-73
2021/01/03 06:33:24;;;;;;;14.45;6.70;;;;;;;2.55;84.73;101439.34;6248904;28;20053;-73
2021/01/03 06:36:32;;;;;;;15.68;7.05;;;;;;;2.55;84.20;101444.53;6248769;28;20049;-73
2021/01/03 06:39:41;;;;;;;9.60;5.17;;;;;;;2.60;83.47;101431.53;6248378;28;20556;-72
2021/01/03 06:43:27;;;;;;;15.50;6.32;;;;;;;2.52;84.45;101432.44;6248812;28;20046;-73
2021/01/03 06:46:52;;;;;;;17.73;6.57;;;;;;;2.53;84.63;101428.97;6248428;28;20042;-72
2021/01/03 06:50:13;;;;;;;17.55;7.38;;;;;;;2.53;83.92;101438.47;6248383;28;20054;-72
2021/01/03 06:53:40;;;;;;;13.95;6.47;;;;;;;2.51;84.43;101435.91;6248522;28;20061;-72
2021/01/03 06:57:06;;;;;;;14.20;6.60;;;;;;;2.66;82.94;101441.84;6248178;28;20049;-72
2021/01/03 07:00:16;;;;;;;13.85;6.40;;;;;;;2.52;84.84;101440.22;6248025;28;20053;-72
2021/01/03 07:03:19;;;;;;;19.17;7.57;;;;;;;2.62;83.34;101443.59;6256833;23;20647;-74
2021/01/03 07:06:22;;;;;;;15.88;7.07;;;;;;;2.60;84.00;101447.94;6220971;28;20046;-74
2021/01/03 07:09:23;;;;;;;17.48;8.23;;;;;;;2.49;84.71;101442.84;6211453;28;20050;-74
2021/01/03 07:12:36;;;;;;;16.30;7.72;;;;;;;2.61;85.15;101444.47;6222619;28;20049;-74
2021/01/03 07:15:39;;;;;;;16.40;8.00;;;;;;;2.51;86.21;101440.25;6217145;28;20100;-74
2021/01/03 07:18:51;;;;;;;18.65;8.38;;;;;;;2.48;85.45;101440.25;6222154;28;20054;-74
2021/01/03 07:21:56;;;;;;;19.77;9.02;;;;;;;2.45;86.35;101443.75;6207760;28;20505;-75
2021/01/03 07:25:19;;;;;;;24.35;8.93;;;;;;;2.49;86.53;101441.97;6219937;28;20049;-75
2021/01/03 07:28:25;;;;;;;27.90;9.50;;;;;;;2.47;87.28;101451.53;6219033;28;20050;-74
2021/01/03 07:31:51;;;;;;;25.63;9.90;;;;;;;2.43;87.75;101450.69;6222842;28;20072;-74
2021/01/03 07:34:54;;;;;;;25.52;10.00;;;;;;;2.49;87.36;101444.56;6217929;28;20523;-74
2021/01/03 07:38:17;;;;;;;23.98;9.52;;;;;;;2.54;86.64;101443.69;6218400;28;20041;-74
2021/01/03 07:41:26;;;;;;;25.50;10.75;;;;;;;2.47;87.44;101454.13;6198002;28;20474;-74
2021/01/03 07:44:32;;;;;;;26.52;10.43;;;;;;;2.48;87.73;101453.22;6205235;28;20150;-74
2021/01/03 07:47:42;;;;;;;22.83;11.02;;;;;;;2.47;88.08;101456.72;6207822;28;20039;-74
2021/01/03 07:50:43;;;;;;;28.20;11.93;;;;;;;2.44;88.79;101462.75;6215776;28;20050;-74
2021/01/03 07:53:45;;;;;;;30.92;12.10;;;;;;;2.45;89.30;101466.22;6207672;28;20056;-74
2021/01/03 07:56:46;;;;;;;28.00;12.65;;;;;;;2.39;89.46;101466.28;6197860;28;20057;-74
2021/01/03 07:59:47;;;;;;;26.98;12.13;;;;;;;2.46;89.45;101462.78;6198031;28;20057;-74
2021/01/03 08:02:49;;;;;;;32.50;13.07;;;;;;;2.41;89.83;101464.56;6197878;28;20046;-74
2021/01/03 08:05:51;;;;;;;34.40;14.20;;;;;;;2.37;90.25;101473.22;6198018;28;20046;-74
2021/01/03 08:08:54;;;;;;;32.25;14.40;;;;;;;2.34;90.94;101460.28;6210092;28;20050;-74
2021/01/03 08:12:04;;;;;;;38.03;14.95;;;;;;;2.37;91.71;101476.69;6222086;28;20486;-75
2021/01/03 08:15:09;;;;;;;35.90;15.05;;;;;;;2.42;91.15;101466.25;6222240;28;20112;-74
2021/01/03 08:18:15;;;;;;;31.52;13.95;;;;;;;2.38;90.43;101480.13;6222093;28;20123;-74
2021/01/03 08:21:17;;;;;;;35.38;14.40;;;;;;;2.40;90.90;101474.03;6221776;28;20593;-74
2021/01/03 08:24:19;;;;;;;34.90;14.85;;;;;;;2.44;91.27;101478.34;6222354;28;20051;-74
2021/01/03 08:27:22;;;;;;;37.55;15.85;;;;;;;2.40;91.66;101480.97;6221752;28;20717;-74
2021/01/03 08:30:24;;;;;;;36.67;16.02;;;;;;;2.33;91.78;101474.97;6221026;28;20045;-74
2021/01/03 08:33:32;;;;;;;35.60;16.05;;;;;;;2.36;91.58;101480.13;6221714;28;20610;-74
2021/01/03 08:36:36;;;;;;;35.60;14.93;;;;;;;2.46;90.97;101479.19;6221881;28;20046;-74
2021/01/03 08:39:38;;;;;;;40.28;15.60;;;;;;;2.52;90.93;101481.72;6221239;28;20115;-74
2021/01/03 08:42:42;;;;;;;31.70;14.10;;;;;;;2.51;90.53;101480.00;6221751;28;20052;-74
2021/01/03 08:45:46;;;;;;;32.28;13.70;;;;;;;2.45;90.93;101481.78;6221886;28;20050;-74
2021/01/03 08:48:56;;;;;;;35.53;15.23;;;;;;;2.44;91.72;101473.16;6219545;28;20057;-75
2021/01/03 08:52:15;;;;;;;42.47;15.90;;;;;;;2.39;92.06;101482.69;6204355;28;20057;-75
2021/01/03 08:55:20;;;;;;;40.40;16.50;;;;;;;2.37;92.66;101487.06;6221862;28;20046;-75
2021/01/03 08:58:21;;;;;;;39.95;14.07;;;;;;;2.49;91.97;101476.56;6202949;28;20075;-74
2021/01/03 09:01:25;;;;;;;34.30;14.55;;;;;;;2.49;91.45;101478.28;6196821;28;20432;-75
2021/01/03 09:04:27;;;;;;;32.63;14.05;;;;;;;2.47;91.57;101482.66;6197243;28;20475;-74
2021/01/03 09:07:33;;;;;;;34.00;14.77;;;;;;;2.48;92.60;101481.78;6219511;28;20509;-74
2021/01/03 09:10:40;;;;;;;33.05;13.98;;;;;;;2.52;92.08;101486.91;6221414;28;20049;-74
2021/01/03 09:13:46;;;;;;;33.67;13.20;;;;;;;2.64;91.48;101487.72;6221444;28;20407;-73
2021/01/03 09:16:54;;;;;;;28.92;12.70;;;;;;;2.61;92.33;101483.38;6220826;28;20065;-74
2021/01/03 09:20:06;;;;;;;28.98;12.93;;;;;;;2.66;91.14;101485.94;6221155;28;20442;-75
2021/01/03 09:23:10;;;;;;;38.92;14.20;;;;;;;2.61;92.08;101491.16;6221260;28;20046;-74
2021/01/03 09:26:12;;;;;;;32.78;13.93;;;;;;;2.81;91.68;101498.78;6221044;28;20046;-74
2021/01/03 09:29:15;;;;;;;33.13;13.05;;;;;;;2.72;90.14;101496.25;6221049;28;20496;-75
2021/01/03 09:32:27;;;;;;;34.20;12.93;;;;;;;2.76;90.34;101497.94;6221138;28;20569;-75
2021/01/03 09:35:39;;;;;;;33.92;12.85;;;;;;;2.75;90.37;101502.28;6221137;28;20410;-75
2021/01/03 09:39:07;;;;;;;27.00;11.52;;;;;;;2.80;90.80;101495.31;6220274;28;20558;-76
2021/01/03 09:42:31;;;;;;;29.15;11.80;;;;;;;2.85;89.56;101494.41;6225407;28;20058;-75
2021/01/03 09:45:45;;;;;;;28.50;11.45;;;;;;;2.85;89.69;101486.63;6225084;28;20046;-77
2021/01/03 09:48:47;;;;;;;29.90;13.02;;;;;;;2.80;91.02;101491.88;6221413;28;20502;-76
2021/01/03 09:52:06;;;;;;;36.83;12.50;;;;;;;2.92;90.16;101493.50;6225299;28;20049;-76
2021/01/03 09:55:12;;;;;;;33.88;12.93;;;;;;;2.94;90.16;101481.34;6225277;28;20042;-76
2021/01/03 09:58:14;;;;;;;30.02;13.23;;;;;;;2.97;90.32;101487.38;6225032;28;20050;-73
2021/01/03 10:01:30;;;;;;;30.23;12.38;;;;;;;2.94;89.85;101484.81;6224753;28;20053;-75
2021/01/03 10:04:43;;;;;;;24.20;11.82;;;;;;;3.08;89.55;101489.84;6224947;28;20049;-75
2021/01/03 10:07:44;;;;;;;27.90;11.23;;;;;;;3.05;88.79;101487.31;6224025;28;20050;-76
2021/01/03 10:10:47;;;;;;;25.02;10.13;;;;;;;3.18;89.02;101477.63;6224554;28;20124;-75
2021/01/03 10:13:55;;;;;;;20.63;8.00;;;;;;;3.20;86.79;101481.94;6219533;28;20053;-75
2021/01/03 10:16:57;;;;;;;20.33;8.70;;;;;;;3.17;87.85;101481.97;6224822;28;20046;-76
2021/01/03 10:19:58;;;;;;;18.90;7.85;;;;;;;3.19;87.26;101477.63;6224216;28;20045;-75
2021/01/03 10:22:59;;;;;;;14.68;6.88;;;;;;;3.18;85.38;101483.69;6224958;28;20049;-76
2021/01/03 10:26:02;;;;;;;19.25;9.45;;;;;;;3.22;85.02;101471.53;6224261;28;20561;-76
2021/01/03 10:29:04;;;;;;;32.85;22.10;;;;;;;3.18;84.17;101464.63;6222081;28;20053;-75
2021/01/03 10:32:05;;;;;;;15.55;6.75;;;;;;;3.19;82.17;101464.63;6224065;28;20054;-75
2021/01/03 10:35:07;;;;;;;13.43;6.00;;;;;;;3.18;83.19;101462.94;6224371;28;20046;-74
2021/01/03 10:38:09;;;;;;;11.77;4.82;;;;;;;3.30;82.65;101457.56;6223569;28;20042;-75
2021/01/03 10:41:10;;;;;;;10.73;4.97;;;;;;;3.41;80.75;101452.25;6224260;28;20049;-74
2021/01/03 10:44:12;;;;;;;11.85;4.97;;;;;;;3.34;82.59;101452.34;6224044;28;20050;-75
2021/01/03 10:47:13;;;;;;;11.80;5.20;;;;;;;3.25;83.13;101450.72;6223879;28;20101;-74
2021/01/03 10:50:15;;;;;;;12.38;4.80;;;;;;;3.29;82.38;101448.06;6223703;28;20054;-74
2021/01/03 10:53:16;;;;;;;14.32;6.03;;;;;;;3.23;82.62;101450.75;6222921;28;20462;-74
2021/01/03 10:56:18;;;;;;;11.48;5.43;;;;;;;3.14;82.60;101456.03;6223537;28;20077;-75
2021/01/03 10:59:21;;;;;;;12.70;5.25;;;;;;;3.16;82.76;101459.47;6223501;28;20045;-75
2021/01/03 11:02:22;;;;;;;11.45;4.90;;;;;;;3.10;81.91;101448.31;6223788;28;20054;-74
2021/01/03 11:05:22;;;;;;;12.05;5.30;;;;;;;3.17;83.37;101463.78;6223751;28;20049;-74
2021/01/03 11:08:23;;;;;;;11.48;4.90;;;;;;;3.25;81.45;101442.94;6223083;28;20485;-74
2021/01/03 11:11:24;;;;;;;12.27;5.72;;;;;;;3.21;81.44;101451.63;6223174;28;20457;-74
2021/01/03 11:14:26;;;;;;;10.60;5.22;;;;;;;3.11;81.69;101444.81;6223431;28;20431;-74
2021/01/03 11:17:27;;;;;;;12.90;5.72;;;;;;;3.15;80.98;101449.13;6223268;28;20045;-74
2021/01/03 11:20:27;;;;;;;11.23;5.00;;;;;;;3.20;81.22;101448.16;6222766;28;20479;-75
2021/01/03 11:23:28;;;;;;;12.38;5.45;;;;;;;3.14;81.92;101439.59;6223377;28;20462;-75
2021/01/03 11:26:31;;;;;;;13.52;4.93;;;;;;;3.27;81.52;101426.47;6221389;28;20100;-75
2021/01/03 11:29:33;;;;;;;12.20;4.95;;;;;;;3.18;80.83;101429.16;6219495;28;20239;-75
2021/01/03 11:32:34;;;;;;;10.30;4.68;;;;;;;3.18;79.84;101415.28;6217719;28;20042;-74
2021/01/03 11:35:35;;;;;;;12.25;5.55;;;;;;;3.14;80.23;101411.03;6221843;28;20118;-75
2021/01/03 11:38:37;;;;;;;13.50;4.53;;;;;;;3.23;79.79;101424.78;6214783;28;20475;-75
2021/01/03 11:41:38;;;;;;;11.25;5.07;;;;;;;3.14;80.63;101419.69;6222734;28;20042;-76
2021/01/03 11:44:39;;;;;;;9.23;4.78;;;;;;;3.17;80.91;101422.22;6217756;28;20129;-76
2021/01/03 11:47:41;;;;;;;10.05;4.45;;;;;;;3.27;80.00;101422.97;6219125;28;20092;-76
2021/01/03 11:50:41;;;;;;;10.43;4.68;;;;;;;3.26;79.83;101411.72;6210127;28;20054;-76
2021/01/03 11:53:42;;;;;;;9.48;4.82;;;;;;;3.23;81.09;101408.34;6206849;28;20069;-76
2021/01/03 11:56:43;;;;;;;11.18;5.13;;;;;;;3.20;81.51;101410.97;6207266;28;20042;-75
2021/01/03 11:59:45;;;;;;;10.20;5.07;;;;;;;3.22;80.14;101401.41;6209724;28;20069;-76
2021/01/03 12:02:46;;;;;;;12.27;5.00;;;;;;;3.21;79.37;101402.28;6208021;28;20048;-76
2021/01/03 12:05:48;;;;;;;9.52;4.60;;;;;;;3.18;79.65;101397.13;6208672;28;20164;-76
2021/01/03 12:08:50;;;;;;;9.27;5.25;;;;;;;3.22;79.78;101391.00;6208530;28;20042;-76
2021/01/03 12:11:52;;;;;;;9.20;4.88;;;;;;;3.37;80.24;101397.75;6202106;28;20061;-76
2021/01/03 12:14:53;;;;;;;9.95;4.53;;;;;;;3.37;79.75;101384.78;6198363;28;20054;-75
2021/01/03 12:17:54;;;;;;;11.57;5.05;;;;;;;3.34;81.08;101380.47;6197393;28;20050;-75
2021/01/03 12:20:56;;;;;;;8.65;4.32;;;;;;;3.36;80.13;101388.22;6197266;28;20082;-75
2021/01/03 12:23:58;;;;;;;9.88;5.15;;;;;;;3.25;82.28;101378.00;6197658;28;20050;-76
2021/01/03 12:26:59;;;;;;;7.80;4.43;;;;;;;3.27;82.46;101387.50;6197089;28;20053;-75
2021/01/03 12:30:00;;;;;;;10.88;5.35;;;;;;;3.13;84.30;101381.59;6197012;28;20480;-76
2021/01/03 12:33:01;;;;;;;12.00;5.18;;;;;;;3.20;84.23;101385.84;6197309;28;20077;-75
2021/01/03 12:36:02;;;;;;;10.00;5.05;;;;;;;3.04;86.02;101384.28;6204947;28;20054;-75
2021/01/03 12:39:06;;;;;;;12.27;4.90;;;;;;;3.10;86.58;101379.06;6220941;28;20462;-74
2021/01/03 12:42:07;;;;;;;9.05;4.93;;;;;;;2.92;87.43;101387.06;6221803;28;20049;-75
2021/01/03 12:45:14;;;;;;;10.88;5.43;;;;;;;2.90;88.59;101388.78;6221296;28;20076;-74
2021/01/03 12:48:15;;;;;;;12.32;6.07;;;;;;;2.83;89.72;101382.84;6220848;28;20042;-76
2021/01/03 12:51:15;;;;;;;11.00;5.45;;;;;;;2.91;89.36;101391.41;6221119;28;20192;-75
2021/01/03 12:54:16;;;;;;;10.38;6.07;;;;;;;2.72;89.91;101389.84;6221763;28;20133;-76
2021/01/03 12:57:17;;;;;;;9.63;5.80;;;;;;;2.78;89.99;101382.03;6221277;28;20050;-76
2021/01/03 13:00:20;;;;;;;11.70;5.82;;;;;;;2.76;90.44;101376.84;6221065;28;20057;-75
2021/01/03 13:03:20;;;;;;;11.32;5.43;;;;;;;2.61;91.95;101373.56;6221424;28;20522;-77
2021/01/03 13:06:21;;;;;;;11.43;5.45;;;;;;;2.58;92.32;101368.38;6252230;23;20037;-74
2021/01/03 13:09:23;;;;;;;12.52;5.60;;;;;;;2.56;92.30;101370.16;6245221;28;20494;-73
2021/01/03 13:12:24;;;;;;;8.02;4.72;;;;;;;2.69;92.55;101374.34;6245373;28;20471;-72
2021/01/03 13:15:26;;;;;;;11.68;5.35;;;;;;;2.65;91.96;101376.09;6247449;28;20049;-73
2021/01/03 13:18:27;;;;;;;13.35;5.97;;;;;;;2.57;93.53;101364.09;6248505;28;20183;-73
2021/01/03 13:21:28;;;;;;;11.32;5.15;;;;;;;2.63;94.03;101364.88;6249968;28;20143;-73
2021/01/03 13:24:28;;;;;;;13.90;5.65;;;;;;;2.72;93.86;101372.53;6250645;28;20413;-74
2021/01/03 13:27:29;;;;;;;9.43;4.97;;;;;;;2.64;93.43;101360.56;6250058;28;20049;-73
2021/01/03 13:30:31;;;;;;;9.10;4.50;;;;;;;2.62;93.08;101370.06;6250230;28;20049;-73
2021/01/03 13:33:32;;;;;;;7.80;5.00;;;;;;;2.73;92.75;101368.25;6250582;28;20111;-73
2021/01/03 13:36:41;;;;;;;8.30;4.32;;;;;;;2.60;93.20;101371.84;6249715;28;20510;-73
2021/01/03 13:39:42;;;;;;;9.80;5.15;;;;;;;2.55;93.87;101369.31;6250195;28;20188;-73
2021/01/03 13:42:43;;;;;;;8.65;4.63;;;;;;;2.54;93.04;101367.56;6250247;28;20103;-73
2021/01/03 13:45:45;;;;;;;12.40;5.82;;;;;;;2.49;94.86;101372.78;6249951;28;20057;-74
2021/01/03 13:48:46;;;;;;;10.60;5.00;;;;;;;2.43;95.17;101370.28;6249423;28;20502;-73
2021/01/03 13:51:48;;;;;;;9.38;5.60;;;;;;;2.42;94.97;101371.16;6233849;28;20049;-74
2021/01/03 13:54:49;;;;;;;9.45;4.75;;;;;;;2.35;95.39;101364.28;6225572;28;20065;-73
2021/01/03 13:57:50;;;;;;;12.00;5.65;;;;;;;2.41;95.67;101369.44;6241273;28;20486;-73
2021/01/03 14:00:52;;;;;;;9.95;4.95;;;;;;;2.39;95.69;101372.91;6249102;28;20049;-73
2021/01/03 14:03:52;;;;;;;10.10;4.75;;;;;;;2.40;95.23;101367.69;6249476;28;20703;-74
2021/01/03 14:06:55;;;;;;;10.00;4.72;;;;;;;2.37;96.20;101364.28;6248884;28;20047;-74
2021/01/03 14:09:56;;;;;;;12.10;5.55;;;;;;;2.41;96.55;101374.63;6249188;28;20152;-73
2021/01/03 14:12:56;;;;;;;10.68;5.55;;;;;;;2.30;96.40;101376.44;6249166;28;20429;-74